Thursday, October 19, 2017, 7:01 AM EDT
Back to Local

KLBE, Latrobe / Westmorland

Location: Latrobe, PA, United States Lat: 40.283
Local Time: 7:01 AM EDT (11:01 GMT) Lon: -79.4
Time Zone: US/Eastern Elev: 1184 ft

Show me the last for .
Show Decoded

2017-10-19 05:55 METAR KLBE 190955Z AUTO 00000KT 10SM CLR 05/05 A3024 RMK AO2 =
2017-10-19 05:35 METAR KLBE 190935Z AUTO 00000KT 10SM CLR 05/04 A3023 RMK AO2 =
2017-10-19 05:15 METAR KLBE 190915Z AUTO 00000KT 10SM CLR 05/04 A3023 RMK AO2 =
2017-10-19 04:55 METAR KLBE 190855Z AUTO 00000KT 10SM CLR 05/04 A3023 RMK AO2 =
2017-10-19 04:35 METAR KLBE 190835Z AUTO 00000KT 10SM CLR 05/05 A3023 RMK AO2 =
2017-10-19 04:15 METAR KLBE 190815Z AUTO 00000KT 10SM CLR 07/05 A3023 RMK AO2 =
2017-10-19 03:55 METAR KLBE 190755Z AUTO 15003KT 10SM CLR 05/04 A3023 RMK AO2 =
2017-10-19 03:35 METAR KLBE 190735Z AUTO 00000KT 10SM CLR 05/04 A3023 RMK AO2 =
2017-10-19 03:15 METAR KLBE 190715Z AUTO 00000KT 10SM CLR 05/05 A3023 RMK AO2 =
2017-10-19 02:55 METAR KLBE 190655Z AUTO 00000KT 10SM CLR 06/05 A3023 RMK AO2 =
2017-10-19 02:35 METAR KLBE 190635Z AUTO 00000KT 10SM CLR 06/05 A3023 RMK AO2 =
2017-10-19 02:15 METAR KLBE 190615Z AUTO 00000KT 7SM CLR 07/05 A3023 RMK AO2 =
2017-10-19 01:55 METAR KLBE 190555Z AUTO 00000KT 10SM CLR 07/05 A3023 RMK AO2 =
2017-10-19 01:35 METAR KLBE 190535Z AUTO 00000KT 10SM CLR 07/06 A3023 RMK AO2 =
2017-10-19 01:15 METAR KLBE 190515Z AUTO 00000KT 10SM CLR 07/05 A3022 RMK AO2 =
2017-10-19 00:55 METAR KLBE 190455Z AUTO 00000KT 6SM BR CLR 08/06 A3022 RMK AO2 =
2017-10-19 00:35 METAR KLBE 190435Z AUTO 00000KT 5SM BR CLR 08/06 A3023 RMK AO2 =
2017-10-19 00:15 METAR KLBE 190415Z AUTO 00000KT 5SM BR CLR 08/06 A3023 RMK AO2 =
2017-10-18 23:55 METAR KLBE 190355Z AUTO 00000KT 3SM BR CLR 08/06 A3023 RMK AO2 =
2017-10-18 23:35 METAR KLBE 190335Z AUTO 00000KT 4SM HZ CLR 08/05 A3024 RMK AO2 =
2017-10-18 23:15 METAR KLBE 190315Z AUTO 00000KT 3SM BR CLR 09/07 A3024 RMK AO2 =
2017-10-18 22:55 METAR KLBE 190255Z AUTO 00000KT 3SM BR CLR 09/07 A3025 RMK AO2 =
2017-10-18 22:35 METAR KLBE 190235Z AUTO 00000KT 2 1/2SM HZ CLR 09/07 A3025 RMK AO2 VSBY 1 1/2V4
                 =
2017-10-18 22:15 METAR KLBE 190215Z AUTO 00000KT 2 1/2SM HZ CLR 09/06 A3025 RMK AO2 VSBY 1 3/4V4
                 =
2017-10-18 20:48 METAR KLBE 190048Z 00000KT 10SM SKC 13/07 A3024 =
2017-10-18 19:48 METAR KLBE 182348Z 00000KT 10SM SKC 13/07 A3024 =
2017-10-18 18:48 METAR KLBE 182248Z 00000KT 10SM SKC 17/06 A3024 =
2017-10-18 17:48 METAR KLBE 182148Z 25008KT 10SM SKC 21/04 A3023 =
2017-10-18 16:48 METAR KLBE 182048Z 25008KT 10SM SKC 22/05 A3026 =
2017-10-18 15:46 METAR KLBE 181946Z 23008KT 10SM SKC 22/05 A3026 =
2017-10-18 14:45 METAR KLBE 181845Z 00000KT 15SM SKC 21/05 A3028 =
2017-10-18 13:58 METAR KLBE 181758Z 00000KT 15SM SKC 20/05 A3030 =
2017-10-18 12:45 METAR KLBE 181645Z VRB03KT 15SM SKC 18/05 A3035 =
2017-10-18 11:50 METAR KLBE 181550Z 00000KT 10SM SKC 15/04 A3037 =
2017-10-18 10:50 METAR KLBE 181450Z 00000KT 10SM SKC 13/07 A3038 =
2017-10-18 09:50 METAR KLBE 181350Z 00000KT 10SM SKC 08/05 A3039 =
2017-10-18 08:50 METAR KLBE 181250Z 00000KT 10SM SKC 04/04 A3038 =
2017-10-18 07:50 METAR KLBE 181150Z 00000KT 10SM SKC 03/03 A3036 =

Support USWX by starting your Amazon purchase here.